Wiseton, Canada
Current Conditions -  °F | °C
As of 3:00 PM on Friday 28 Nov 2014 (Local Time) from CYKY Reporting Station
Light Snow Light Snow  
Wind Chill: -17°   Ceiling: 600
Heat Index:   Visibility: 2mi
Dew Point: -2°   Wind: 17mph
Humidity: 78%   Direction: 350°N
Pressure: 29.58"   Gusts: NA
Location:  51.32°N, 107.65°W
Report Text: CYKY 282100Z 35015KT 2SM -SN DRSN OVC006 M16/M19 A2958 RMK NS8 SLP069
Loading
Personal Weather Stations






























Interactive Weather Map New forecast layout! Learn more

10-Day Weather Forecast

Advertisements
Track Severe Weather on mobile